Terminal Aerodrome Forecast
Issued by NWS Cleveland, OH

Home | Current Version | Previous Version | Text Only | Print | Product List | Glossary Off
Versions: 1 2 3 4 5 6 7 8 9 10 11 12 13 14 15 16 17 18 19 20 21 22 23 24

000
FTUS41 KCLE 181700
TAFTOL
TAF
KTOL 181726Z 1818/1918 05012KT P6SM FEW050 SCT250
     FM181900 05012G20KT P6SM FEW050 BKN250
     FM190000 06012KT P6SM BKN200
     FM191700 09012G20KT P6SM VCSH BKN060 OVC100=

USA.gov is the U.S. government's official web portal to all federal, state and local government web resources and services.